createdAt,value
2023-08-13T00:01:12.700Z,63.23
2023-08-13T00:03:40.754Z,63.35
2023-08-13T00:06:08.638Z,63.11
2023-08-13T00:08:36.393Z,63.28
2023-08-13T00:11:12.766Z,63.03
2023-08-13T00:13:41.666Z,63.12
2023-08-13T00:16:10.284Z,63.43
2023-08-13T00:18:38.325Z,63.35
2023-08-13T00:21:06.392Z,63.45
2023-08-13T00:23:34.161Z,63.23
2023-08-13T00:26:01.949Z,63.42
2023-08-13T00:28:29.806Z,63.30
2023-08-13T00:30:57.573Z,63.20
2023-08-13T00:33:25.481Z,63.97
2023-08-13T00:35:53.291Z,63.21
2023-08-13T00:38:21.012Z,63.22
2023-08-13T00:40:48.925Z,63.20
2023-08-13T00:43:16.628Z,63.06
2023-08-13T00:45:45.006Z,63.20
2023-08-13T00:48:13.577Z,63.28
2023-08-13T00:50:42.071Z,63.21
2023-08-13T00:53:11.537Z,63.00
2023-08-13T00:55:39.734Z,63.21
2023-08-13T00:58:07.525Z,62.94
2023-08-13T01:00:35.263Z,63.25
2023-08-13T01:03:02.973Z,63.18
2023-08-13T01:05:54.415Z,63.13
2023-08-13T01:08:41.718Z,63.33
2023-08-13T01:11:48.213Z,63.07
2023-08-13T01:14:26.222Z,63.18
2023-08-13T01:16:57.669Z,63.44
2023-08-13T01:19:25.732Z,63.31
2023-08-13T01:21:53.562Z,63.75
2023-08-13T01:24:21.624Z,63.90
2023-08-13T01:27:02.699Z,64.37
2023-08-13T01:29:41.732Z,64.48
2023-08-13T01:32:13.481Z,63.93
2023-08-13T01:34:43.000Z,65.43
2023-08-13T01:37:11.957Z,65.52
2023-08-13T01:39:40.485Z,65.07
2023-08-13T01:42:11.270Z,65.46
2023-08-13T01:44:38.997Z,65.73
2023-08-13T01:47:07.120Z,66.42
2023-08-13T01:49:35.490Z,66.30
2023-08-13T01:52:03.315Z,66.01
2023-08-13T01:54:31.057Z,65.47
2023-08-13T01:57:00.220Z,65.76
2023-08-13T01:59:28.009Z,65.62
2023-08-13T02:01:55.665Z,66.14
2023-08-13T02:04:23.580Z,66.71
2023-08-13T02:06:52.517Z,67.35
2023-08-13T02:09:20.267Z,66.28
2023-08-13T02:11:48.064Z,66.56
2023-08-13T02:14:15.853Z,68.09
2023-08-13T02:16:43.742Z,67.58
2023-08-13T02:19:11.979Z,67.72
2023-08-13T02:21:39.855Z,67.67
2023-08-13T02:24:07.853Z,67.84
2023-08-13T02:26:35.541Z,67.72
2023-08-13T02:29:03.311Z,67.42
2023-08-13T02:31:31.049Z,69.14
2023-08-13T02:33:58.753Z,69.64
2023-08-13T02:36:26.557Z,68.82
2023-08-13T02:38:54.265Z,69.91
2023-08-13T02:41:21.925Z,70.30
2023-08-13T02:43:54.726Z,68.71
2023-08-13T02:46:24.275Z,71.03
2023-08-13T02:48:57.069Z,71.77
2023-08-13T02:51:25.506Z,70.26
2023-08-13T02:53:53.802Z,70.58
2023-08-13T02:56:21.917Z,71.09
2023-08-13T02:58:49.730Z,70.22
2023-08-13T03:01:17.640Z,70.57
2023-08-13T03:03:52.883Z,71.22
2023-08-13T03:06:26.257Z,73.02
2023-08-13T03:08:54.278Z,73.50
2023-08-13T03:11:22.277Z,72.05
2023-08-13T03:13:50.487Z,71.19
2023-08-13T03:16:18.401Z,71.30
2023-08-13T03:18:46.660Z,71.72
2023-08-13T03:21:17.022Z,74.65
2023-08-13T03:23:44.774Z,73.62
2023-08-13T03:26:12.642Z,72.39
2023-08-13T03:28:40.914Z,72.99
2023-08-13T03:31:14.029Z,72.80
2023-08-13T03:33:48.098Z,73.23
2023-08-13T03:36:15.828Z,72.15
2023-08-13T03:38:43.589Z,74.67
2023-08-13T03:41:11.341Z,73.59
2023-08-13T03:43:39.172Z,75.01
2023-08-13T03:46:07.001Z,74.83
2023-08-13T03:48:34.882Z,76.83
2023-08-13T03:51:04.950Z,75.98
2023-08-13T03:53:33.705Z,76.31
2023-08-13T03:56:01.686Z,75.18
2023-08-13T03:58:31.492Z,74.34
2023-08-13T04:01:05.409Z,73.34
2023-08-13T04:03:33.711Z,75.11
2023-08-13T04:06:02.255Z,74.16
2023-08-13T04:08:30.541Z,76.02
2023-08-13T04:10:58.196Z,75.88
2023-08-13T04:13:25.822Z,77.81
2023-08-13T04:15:54.005Z,74.77
2023-08-13T04:18:22.192Z,74.75
2023-08-13T04:20:50.150Z,76.51
2023-08-13T04:23:18.974Z,75.07
2023-08-13T04:25:46.769Z,75.59
2023-08-13T04:28:15.000Z,75.41
2023-08-13T04:30:44.832Z,74.68
2023-08-13T04:33:12.557Z,73.79
2023-08-13T04:35:40.564Z,75.37
2023-08-13T04:38:08.509Z,76.40
2023-08-13T04:40:40.068Z,74.77
2023-08-13T04:43:08.351Z,73.19
2023-08-13T04:45:36.296Z,76.04
2023-08-13T04:48:04.418Z,74.38
2023-08-13T04:50:34.428Z,73.50
2023-08-13T04:53:02.172Z,74.41
2023-08-13T04:55:30.088Z,73.72
2023-08-13T04:57:57.939Z,73.16
2023-08-13T05:00:26.071Z,74.40
2023-08-13T05:02:53.934Z,73.69
2023-08-13T05:05:22.003Z,72.89
2023-08-13T05:07:50.689Z,72.93
2023-08-13T05:10:18.916Z,73.34
2023-08-13T05:12:47.213Z,72.50
2023-08-13T05:15:15.867Z,72.78
2023-08-13T05:17:43.543Z,72.53
2023-08-13T05:20:11.498Z,72.81
2023-08-13T05:22:39.355Z,72.42
2023-08-13T05:25:07.668Z,72.27
2023-08-13T05:27:35.824Z,71.93
2023-08-13T05:30:03.946Z,71.71
2023-08-13T05:32:31.930Z,71.79
2023-08-13T05:34:59.876Z,71.02
2023-08-13T05:37:28.102Z,70.50
2023-08-13T05:39:55.967Z,70.62
2023-08-13T05:42:23.686Z,70.49
2023-08-13T05:44:52.345Z,69.63
2023-08-13T05:47:20.134Z,69.22
2023-08-13T05:49:47.958Z,69.35
2023-08-13T05:52:17.041Z,68.66
2023-08-13T05:54:44.861Z,67.86
2023-08-13T05:57:13.234Z,67.37
2023-08-13T05:59:41.421Z,66.66
2023-08-13T06:02:09.556Z,66.60
2023-08-13T06:04:37.392Z,65.79
2023-08-13T06:07:05.440Z,65.62
2023-08-13T06:09:33.337Z,65.33
2023-08-13T06:12:01.866Z,65.33
2023-08-13T06:14:29.588Z,65.43
2023-08-13T06:17:08.526Z,64.46
2023-08-13T06:19:40.430Z,63.49
2023-08-13T06:22:08.308Z,62.80
2023-08-13T06:24:36.163Z,62.48
2023-08-13T06:27:04.197Z,62.20
2023-08-13T06:29:31.972Z,62.77
2023-08-13T06:31:59.714Z,62.22
2023-08-13T06:34:27.625Z,62.15
2023-08-13T06:36:55.570Z,61.80
2023-08-13T06:39:23.407Z,61.34
2023-08-13T06:41:51.285Z,61.76
2023-08-13T06:44:21.402Z,60.62
2023-08-13T06:46:49.837Z,60.27
2023-08-13T06:49:17.883Z,58.31
2023-08-13T06:51:45.832Z,59.07
2023-08-13T06:54:13.490Z,58.30
2023-08-13T06:56:41.207Z,58.56
2023-08-13T06:59:08.917Z,57.81
2023-08-13T07:01:36.903Z,57.75
2023-08-13T07:04:07.347Z,59.58
2023-08-13T07:06:35.846Z,57.96
2023-08-13T07:09:04.873Z,55.65
2023-08-13T07:11:37.474Z,55.98
2023-08-13T07:14:05.724Z,55.90
2023-08-13T07:16:33.612Z,55.65
2023-08-13T07:19:02.227Z,55.81
2023-08-13T07:21:29.974Z,56.30
2023-08-13T07:23:58.544Z,55.64
2023-08-13T07:26:26.312Z,54.85
2023-08-13T07:28:54.151Z,55.58
2023-08-13T07:31:22.105Z,55.57
2023-08-13T07:33:50.861Z,55.31
2023-08-13T07:36:18.648Z,54.59
2023-08-13T07:38:46.349Z,53.13
2023-08-13T07:41:14.510Z,53.32
2023-08-13T07:43:42.321Z,52.42
2023-08-13T07:46:10.186Z,52.40
2023-08-13T07:48:37.992Z,52.76
2023-08-13T07:51:05.739Z,53.09
2023-08-13T07:53:33.578Z,52.14
2023-08-13T07:56:01.535Z,52.06
2023-08-13T07:58:29.532Z,52.78
2023-08-13T08:00:57.588Z,52.25
2023-08-13T08:03:25.658Z,51.94
2023-08-13T08:05:54.143Z,51.77
2023-08-13T08:08:22.111Z,52.93
2023-08-13T08:10:49.883Z,51.55
2023-08-13T08:13:17.598Z,51.36
2023-08-13T08:15:45.332Z,51.54
2023-08-13T08:18:13.176Z,51.24
2023-08-13T08:20:41.086Z,51.17
2023-08-13T08:23:08.912Z,51.39
2023-08-13T08:25:36.772Z,50.35
2023-08-13T08:28:04.966Z,49.14
2023-08-13T08:30:32.809Z,49.83
2023-08-13T08:33:00.607Z,49.33
2023-08-13T08:35:28.496Z,49.86
2023-08-13T08:37:56.325Z,49.09
2023-08-13T08:40:24.163Z,49.37
2023-08-13T08:42:52.294Z,47.63
2023-08-13T08:45:21.008Z,48.06
2023-08-13T08:47:51.136Z,47.97
2023-08-13T08:50:19.058Z,49.11
2023-08-13T08:52:49.099Z,47.90
2023-08-13T08:55:17.660Z,47.61
2023-08-13T08:57:45.361Z,48.99
2023-08-13T09:00:13.584Z,47.55
2023-08-13T09:02:42.992Z,45.91
2023-08-13T09:05:10.993Z,46.73
2023-08-13T09:07:44.183Z,45.56
2023-08-13T09:10:12.725Z,44.46
2023-08-13T09:12:42.940Z,44.64
2023-08-13T09:15:12.540Z,42.95
2023-08-13T09:17:40.922Z,42.77
2023-08-13T09:20:20.580Z,42.83
2023-08-13T09:22:49.247Z,40.92
2023-08-13T09:25:17.638Z,40.56
2023-08-13T09:27:46.116Z,40.87
2023-08-13T09:30:21.448Z,39.27
2023-08-13T09:32:49.535Z,37.99
2023-08-13T09:35:17.319Z,37.74
2023-08-13T09:37:45.170Z,36.17
2023-08-13T09:40:13.168Z,36.38
2023-08-13T09:42:44.242Z,34.99
2023-08-13T09:45:12.712Z,35.99
2023-08-13T09:47:45.071Z,35.54
2023-08-13T09:50:18.876Z,34.10
2023-08-13T09:52:47.909Z,33.66
2023-08-13T09:55:21.417Z,33.45
2023-08-13T09:57:51.903Z,32.72
2023-08-13T10:00:19.976Z,33.12
2023-08-13T10:02:48.695Z,32.24
2023-08-13T10:05:16.965Z,31.40
2023-08-13T10:07:45.972Z,30.98
2023-08-13T10:10:14.011Z,31.23
2023-08-13T10:12:42.575Z,30.84
2023-08-13T10:15:10.740Z,30.04
2023-08-13T10:17:38.521Z,29.24
2023-08-13T10:20:07.120Z,30.73
2023-08-13T10:22:37.204Z,30.61
2023-08-13T10:25:09.241Z,29.47
2023-08-13T10:27:44.511Z,27.96
2023-08-13T10:30:14.688Z,29.39
2023-08-13T10:32:54.833Z,29.51
2023-08-13T10:35:23.864Z,29.05
2023-08-13T10:37:59.028Z,29.15
2023-08-13T10:40:28.269Z,29.87
2023-08-13T10:42:58.587Z,29.51
2023-08-13T10:45:35.471Z,29.71
2023-08-13T10:48:05.362Z,29.30
2023-08-13T10:50:40.226Z,29.70
2023-08-13T10:53:21.272Z,28.82
2023-08-13T10:55:51.534Z,28.71
2023-08-13T10:58:27.844Z,29.37
2023-08-13T11:01:11.988Z,29.83
2023-08-13T11:03:53.764Z,30.61
2023-08-13T11:06:23.485Z,30.67
2023-08-13T11:08:51.782Z,30.33
2023-08-13T11:11:20.935Z,28.83
2023-08-13T11:13:50.394Z,28.82
2023-08-13T11:16:18.579Z,28.48
2023-08-13T11:18:46.508Z,29.07
2023-08-13T11:21:15.213Z,29.07
2023-08-13T11:23:42.961Z,29.44
2023-08-13T11:26:10.808Z,29.23
2023-08-13T11:28:38.604Z,29.73
2023-08-13T11:31:06.330Z,29.51
2023-08-13T11:33:34.140Z,29.64
2023-08-13T11:36:02.136Z,29.52
2023-08-13T11:38:30.024Z,28.83
2023-08-13T11:40:57.828Z,29.26
2023-08-13T11:43:29.772Z,29.53
2023-08-13T11:45:57.529Z,30.12
2023-08-13T11:48:25.425Z,30.26
2023-08-13T11:51:23.443Z,30.47
2023-08-13T11:53:51.511Z,30.67
2023-08-13T11:56:20.492Z,32.18
2023-08-13T11:58:50.004Z,32.27
2023-08-13T12:01:17.835Z,32.24
2023-08-13T12:03:46.233Z,32.60
2023-08-13T12:06:14.697Z,32.80
2023-08-13T12:08:46.754Z,33.45
2023-08-13T12:11:14.709Z,33.61
2023-08-13T12:13:43.184Z,33.17
2023-08-13T12:16:11.225Z,34.09
2023-08-13T12:18:39.415Z,34.90
2023-08-13T12:21:07.139Z,34.87
2023-08-13T12:23:34.933Z,35.09
2023-08-13T12:26:03.581Z,36.22
2023-08-13T12:28:31.654Z,36.05
2023-08-13T12:30:59.550Z,36.96
2023-08-13T12:33:27.546Z,37.50
2023-08-13T12:35:55.374Z,38.66
2023-08-13T12:38:23.199Z,38.08
2023-08-13T12:40:50.992Z,38.49
2023-08-13T12:43:18.658Z,38.77
2023-08-13T12:45:46.652Z,38.78
2023-08-13T12:48:14.568Z,39.08
2023-08-13T12:50:42.380Z,38.93
2023-08-13T12:53:10.057Z,38.96
2023-08-13T12:55:37.847Z,38.38
2023-08-13T12:58:05.757Z,38.70
2023-08-13T13:00:33.573Z,38.83
2023-08-13T13:03:01.431Z,38.89
2023-08-13T13:05:29.261Z,39.89
2023-08-13T13:07:57.069Z,40.82
2023-08-13T13:10:25.420Z,40.83
2023-08-13T13:12:53.371Z,41.39
2023-08-13T13:15:21.741Z,42.18
2023-08-13T13:17:49.622Z,42.58
2023-08-13T13:20:19.285Z,42.60
2023-08-13T13:22:47.019Z,43.61
2023-08-13T13:25:14.905Z,42.96
2023-08-13T13:27:43.209Z,43.23
2023-08-13T13:30:12.693Z,42.59
2023-08-13T13:32:41.766Z,43.03
2023-08-13T13:35:10.171Z,43.14
2023-08-13T13:37:37.885Z,43.22
2023-08-13T13:40:06.890Z,42.98
2023-08-13T13:42:34.944Z,44.62
2023-08-13T13:45:03.290Z,43.34
2023-08-13T13:47:31.109Z,43.85
2023-08-13T13:49:58.915Z,44.35
2023-08-13T13:52:26.641Z,44.16
2023-08-13T13:54:55.412Z,44.61
2023-08-13T13:57:25.145Z,45.32
2023-08-13T13:59:52.822Z,45.90
2023-08-13T14:02:20.753Z,46.11
2023-08-13T14:04:48.616Z,45.51
2023-08-13T14:07:16.694Z,46.44
2023-08-13T14:09:44.566Z,46.75
2023-08-13T14:12:12.301Z,48.03
2023-08-13T14:14:40.267Z,48.30
2023-08-13T14:17:08.203Z,48.67
2023-08-13T14:19:35.981Z,48.39
2023-08-13T14:22:03.664Z,47.98
2023-08-13T14:24:31.413Z,48.54
2023-08-13T14:27:00.297Z,48.14
2023-08-13T14:29:28.053Z,47.96
2023-08-13T14:31:55.827Z,48.06
2023-08-13T14:34:23.710Z,48.16
2023-08-13T14:36:51.533Z,48.39
2023-08-13T14:39:19.900Z,48.68
2023-08-13T14:41:47.677Z,49.02
2023-08-13T14:44:16.512Z,48.73
2023-08-13T14:46:45.515Z,50.09
2023-08-13T14:49:13.561Z,49.10
2023-08-13T14:51:43.980Z,50.20
2023-08-13T14:54:13.469Z,50.53
2023-08-13T14:56:41.226Z,50.28
2023-08-13T14:59:09.056Z,49.64
2023-08-13T15:01:38.727Z,49.07
2023-08-13T15:04:07.241Z,49.36
2023-08-13T15:06:35.117Z,49.03
2023-08-13T15:09:02.891Z,49.97
2023-08-13T15:11:30.803Z,48.80
2023-08-13T15:13:58.627Z,47.80
2023-08-13T15:16:26.437Z,46.99
2023-08-13T15:18:54.325Z,47.82
2023-08-13T15:21:22.038Z,47.43
2023-08-13T15:23:49.828Z,47.18
2023-08-13T15:26:17.571Z,47.44
2023-08-13T15:28:45.587Z,46.87
2023-08-13T15:31:13.326Z,46.48
2023-08-13T15:33:41.369Z,46.57
2023-08-13T15:36:09.400Z,47.06
2023-08-13T15:38:37.128Z,46.82
2023-08-13T15:41:05.952Z,46.47
2023-08-13T15:43:33.638Z,46.63
2023-08-13T15:46:01.396Z,47.60
2023-08-13T15:48:29.399Z,48.16
2023-08-13T15:50:57.305Z,48.58
2023-08-13T15:53:25.154Z,48.98
2023-08-13T15:55:52.911Z,49.23
2023-08-13T15:58:20.784Z,49.44
2023-08-13T16:00:48.541Z,49.93
2023-08-13T16:03:16.378Z,49.93
2023-08-13T16:05:44.445Z,50.31
2023-08-13T16:08:12.366Z,50.65
2023-08-13T16:10:41.157Z,50.94
2023-08-13T16:13:09.251Z,51.11
2023-08-13T16:15:37.019Z,51.48
2023-08-13T16:18:05.161Z,51.20
2023-08-13T16:20:33.040Z,51.79
2023-08-13T16:23:00.904Z,52.23
2023-08-13T16:25:28.837Z,52.54
2023-08-13T16:27:58.517Z,52.00
2023-08-13T16:30:26.430Z,52.80
2023-08-13T16:32:54.394Z,53.12
2023-08-13T16:35:22.178Z,52.24
2023-08-13T16:37:50.154Z,52.43
2023-08-13T16:40:18.248Z,52.97
2023-08-13T16:43:00.148Z,53.30
2023-08-13T16:45:33.403Z,52.95
2023-08-13T16:48:01.615Z,53.38
2023-08-13T16:50:29.538Z,53.30
2023-08-13T16:52:57.400Z,53.43
2023-08-13T16:55:26.576Z,53.25
2023-08-13T16:57:54.419Z,53.52
2023-08-13T17:00:22.150Z,54.07
2023-08-13T17:02:50.256Z,53.83
2023-08-13T17:05:18.275Z,54.33
2023-08-13T17:07:46.123Z,54.03
2023-08-13T17:10:15.167Z,54.51
2023-08-13T17:12:43.756Z,53.75
2023-08-13T17:15:24.288Z,53.84
2023-08-13T17:17:55.549Z,54.45
2023-08-13T17:20:24.698Z,53.92
2023-08-13T17:22:52.596Z,53.95
2023-08-13T17:25:20.486Z,53.88
2023-08-13T17:27:48.486Z,53.58
2023-08-13T17:30:16.728Z,53.86
2023-08-13T17:32:44.883Z,54.35
2023-08-13T17:35:12.849Z,54.45
2023-08-13T17:37:41.353Z,54.84
2023-08-13T17:40:09.884Z,55.41
2023-08-13T17:42:37.794Z,55.30
2023-08-13T17:45:06.074Z,55.85
2023-08-13T17:47:34.368Z,55.85
2023-08-13T17:50:02.557Z,56.22
2023-08-13T17:52:30.322Z,56.38
2023-08-13T17:54:58.121Z,56.99
2023-08-13T17:57:26.033Z,57.60
2023-08-13T17:59:54.219Z,58.41
2023-08-13T18:02:40.273Z,58.72
2023-08-13T18:05:08.692Z,59.81
2023-08-13T18:07:38.107Z,58.73
2023-08-13T18:10:06.203Z,59.41
2023-08-13T18:12:34.637Z,59.77
2023-08-13T18:15:02.570Z,59.92
2023-08-13T18:17:30.395Z,60.16
2023-08-13T18:19:59.154Z,60.59
2023-08-13T18:22:27.301Z,60.58
2023-08-13T18:24:56.416Z,60.80
2023-08-13T18:27:24.254Z,61.10
2023-08-13T18:29:52.536Z,61.39
2023-08-13T18:32:20.268Z,61.46
2023-08-13T18:34:48.044Z,61.62
2023-08-13T18:37:16.346Z,61.97
2023-08-13T18:39:45.191Z,62.44
2023-08-13T18:42:15.533Z,63.54
2023-08-13T18:44:44.391Z,63.40
2023-08-13T18:47:12.173Z,63.48
2023-08-13T18:49:40.083Z,64.25
2023-08-13T18:52:08.288Z,64.63
2023-08-13T18:54:36.061Z,64.91
2023-08-13T18:57:04.021Z,64.92
2023-08-13T18:59:31.761Z,65.34
2023-08-13T19:01:59.498Z,65.44
2023-08-13T19:04:27.317Z,66.47
2023-08-13T19:06:55.144Z,66.23
2023-08-13T19:09:22.878Z,66.66
2023-08-13T19:11:51.110Z,66.63
2023-08-13T19:14:18.934Z,67.67
2023-08-13T19:16:47.253Z,67.86
2023-08-13T19:19:15.563Z,67.97
2023-08-13T19:21:43.390Z,68.56
2023-08-13T19:24:11.267Z,68.95
2023-08-13T19:26:39.069Z,69.44
2023-08-13T19:29:06.851Z,69.19
2023-08-13T19:31:34.655Z,69.13
2023-08-13T19:34:02.507Z,69.63
2023-08-13T19:36:30.287Z,69.77
2023-08-13T19:38:59.546Z,69.96
2023-08-13T19:41:28.307Z,71.15
2023-08-13T19:43:56.220Z,70.90
2023-08-13T19:46:24.150Z,71.35
2023-08-13T19:48:51.935Z,72.00
2023-08-13T19:51:19.762Z,72.21
2023-08-13T19:53:47.637Z,72.30
2023-08-13T19:56:15.426Z,72.72
2023-08-13T19:58:43.182Z,73.12
2023-08-13T20:01:11.048Z,73.19
2023-08-13T20:03:38.901Z,73.74
2023-08-13T20:06:06.787Z,74.23
2023-08-13T20:08:36.898Z,74.47
2023-08-13T20:11:04.726Z,74.22
2023-08-13T20:13:32.536Z,74.57
2023-08-13T20:16:07.088Z,74.81
2023-08-13T20:18:35.170Z,74.87
2023-08-13T20:21:03.199Z,75.87
2023-08-13T20:23:31.086Z,75.55
2023-08-13T20:25:58.931Z,75.31
2023-08-13T20:28:26.781Z,76.03
2023-08-13T20:30:54.835Z,76.20
2023-08-13T20:33:22.597Z,76.35
2023-08-13T20:35:50.339Z,76.10
2023-08-13T20:38:18.081Z,75.98
2023-08-13T20:40:45.796Z,76.16
2023-08-13T20:43:13.683Z,76.24
2023-08-13T20:45:42.285Z,77.10
2023-08-13T20:48:10.584Z,77.43
2023-08-13T20:50:38.438Z,76.83
2023-08-13T20:53:07.015Z,77.22
2023-08-13T20:55:36.623Z,77.75
2023-08-13T20:58:04.728Z,78.24
2023-08-13T21:00:32.455Z,78.36
2023-08-13T21:03:00.335Z,78.22
2023-08-13T21:05:28.988Z,78.30
2023-08-13T21:07:56.905Z,78.75
2023-08-13T21:10:24.946Z,79.19
2023-08-13T21:12:52.698Z,79.21
2023-08-13T21:15:20.391Z,79.17
2023-08-13T21:17:48.318Z,79.39
2023-08-13T21:20:16.112Z,79.49
2023-08-13T21:22:44.046Z,79.65
2023-08-13T21:25:11.801Z,79.56
2023-08-13T21:27:39.677Z,79.99
2023-08-13T21:30:12.525Z,80.18
2023-08-13T21:32:41.667Z,80.71
2023-08-13T21:35:12.215Z,80.70
2023-08-13T21:37:40.892Z,81.31
2023-08-13T21:40:09.407Z,80.07
2023-08-13T21:42:37.159Z,80.38
2023-08-13T21:45:05.177Z,81.14
2023-08-13T21:47:32.890Z,81.16
2023-08-13T21:50:00.575Z,81.22
2023-08-13T21:52:28.392Z,81.32
2023-08-13T21:54:56.164Z,81.40
2023-08-13T21:57:23.945Z,81.15
2023-08-13T21:59:51.967Z,81.85
2023-08-13T22:02:20.242Z,82.13
2023-08-13T22:04:49.510Z,82.02
2023-08-13T22:07:18.040Z,81.63
2023-08-13T22:09:45.932Z,81.70
2023-08-13T22:12:13.622Z,81.36
2023-08-13T22:14:41.386Z,81.86
2023-08-13T22:17:09.173Z,82.46
2023-08-13T22:19:51.569Z,81.55
2023-08-13T22:22:21.168Z,82.69
2023-08-13T22:24:48.953Z,83.52
2023-08-13T22:27:16.860Z,84.13
2023-08-13T22:29:45.240Z,83.29
2023-08-13T22:32:13.051Z,83.76
2023-08-13T22:34:42.603Z,83.80
2023-08-13T22:37:11.470Z,82.99
2023-08-13T22:39:39.418Z,83.06
2023-08-13T22:42:07.739Z,82.98
2023-08-13T22:44:35.501Z,83.01
2023-08-13T22:47:03.672Z,84.31
2023-08-13T22:49:36.695Z,84.05
2023-08-13T22:52:09.720Z,85.22
2023-08-13T22:54:39.288Z,85.24
2023-08-13T22:57:09.211Z,85.11
2023-08-13T22:59:38.291Z,84.72
2023-08-13T23:02:07.659Z,83.71
2023-08-13T23:04:35.442Z,83.25
2023-08-13T23:07:03.232Z,83.78
2023-08-13T23:09:31.541Z,83.53
2023-08-13T23:11:59.353Z,83.63
2023-08-13T23:14:27.169Z,84.87
2023-08-13T23:16:55.628Z,85.03
2023-08-13T23:19:24.182Z,85.50
2023-08-13T23:21:52.131Z,85.68
2023-08-13T23:24:20.533Z,85.08
2023-08-13T23:26:48.474Z,84.62
2023-08-13T23:29:16.417Z,84.75
2023-08-13T23:31:44.301Z,85.38
2023-08-13T23:34:12.182Z,84.54
2023-08-13T23:36:40.386Z,84.66
2023-08-13T23:39:08.618Z,84.84
2023-08-13T23:41:38.421Z,84.75
2023-08-13T23:44:07.016Z,85.33
2023-08-13T23:46:34.870Z,85.18
2023-08-13T23:49:03.001Z,85.13
2023-08-13T23:51:30.800Z,84.85
2023-08-13T23:53:58.581Z,85.28
2023-08-13T23:56:26.463Z,85.05
2023-08-13T23:58:54.185Z,84.95
